Latest Weather Observations for Kuitpo

IDS60901

Issued at 6:41 pm CDT Monday 4 March 2024 (issued every 10 minutes, with the page automatically refreshed every 10 minutes)

About weather observations | Map of Adelaide area stations | Latest observations for Adelaide area | Other Formats
Station Details ID: 023887 Name: KUITPO FOREST RESERVE Lat: -35.17 Lon: 138.68 Height: 365.0 m
Data from the previous 72 hours. | See also: Recent months at Kuitpo
Date/Time
CDT
Temp
°C
App
Temp
°C
Dew
Point
°C
Rel
Hum
%
Delta-T
°C
Wind Press
QNH
hPa
Press
MSL
hPa
Rain since
9am
mm
Dir  Spd
km/h
Gust
km/h
Spd
kts
Gust
kts
04/06:30pm 23.0 19.5 8.7 40 7.7 ESE 17 24 9 13 1017.6 1016.6 0.0
04/06:00pm 24.1 20.9 6.8 33 9.1 E 13 19 7 10 1017.8 1016.8 0.0
04/05:30pm 25.3 21.8 5.5 28 10.3 ENE 13 20 7 11 1017.7 1016.7 0.0
04/05:00pm 25.5 21.4 6.2 29 10.2 E 17 26 9 14 1017.5 1016.5 0.0
04/04:30pm 24.6 20.4 5.9 30 9.7 E 17 24 9 13 1017.7 1016.7 0.0
04/04:00pm 24.8 20.4 6.5 31 9.6 E 19 28 10 15 1017.7 1016.7 0.0
04/03:30pm 24.6 20.1 6.8 32 9.4 E 20 28 11 15 1017.9 1016.9 0.0
04/03:00pm 24.5 20.8 6.3 31 9.5 E 15 30 8 16 1018.1 1017.1 0.0
04/02:30pm 24.0 20.1 7.2 34 8.9 ENE 17 24 9 13 1018.7 1017.7 0.0
04/02:00pm 23.7 19.6 7.8 36 8.5 ENE 19 28 10 15 1018.9 1017.9 0.0
04/01:30pm 22.2 18.1 8.0 40 7.6 E 19 28 10 15 1019.3 1018.3 0.0
04/01:00pm 21.8 18.0 7.6 40 7.5 ENE 17 28 9 15 1019.4 1018.4 0.0
04/12:30pm 20.8 15.9 8.4 45 6.6 E 24 32 13 17 1019.7 1018.7 0.0
04/12:00pm 20.2 16.0 8.2 46 6.3 E 20 32 11 17 1020.4 1019.4 0.0
04/11:30am 19.7 15.9 9.0 50 5.7 E 19 26 10 14 1021.1 1020.1 0.0
04/11:00am 18.3 14.7 8.3 52 5.2 ENE 17 26 9 14 1021.5 1020.5 0.0
04/10:30am 16.4 11.8 8.1 58 4.3 ENE 22 30 12 16 1021.7 1020.8 0.0
04/10:00am 15.8 11.2 8.3 61 3.9 E 22 32 12 17 1021.8 1020.9 0.0
04/09:30am 13.9 8.7 7.4 65 3.2 E 24 33 13 18 1022.0 1021.0 0.0
04/09:00am 13.2 8.4 7.4 68 2.9 ENE 22 32 12 17 1021.8 1020.9 0.0
04/08:30am 12.2 7.5 7.9 75 2.1 ENE 22 35 12 19 1021.8 1020.9 0.0
04/08:00am 11.0 5.1 7.3 78 1.8 ENE 28 35 15 19 1021.5 1020.5 0.0
04/07:30am 10.0 5.3 7.6 85 1.2 E 22 30 12 16 1021.4 1020.4 0.0
04/07:00am 9.8 5.1 7.7 87 1.0 E 22 30 12 16 1021.2 1020.2 0.0
04/06:30am 10.0 4.6 7.9 87 1.0 E 26 35 14 19 1021.0 1020.0 0.0
04/06:00am 10.3 3.9 8.4 88 0.9 E 32 44 17 24 1020.6 1019.6 0.0
04/05:30am 10.4 5.3 9.3 93 0.6 E 26 33 14 18 1020.8 1019.8 0.0
04/05:00am 10.5 7.1 9.3 92 0.6 E 17 26 9 14 1020.9 1019.9 0.0
04/04:30am 11.0 7.1 9.6 91 0.7 E 20 32 11 17 1020.9 1019.9 0.0
04/04:00am 11.4 6.9 10.1 92 0.7 ESE 24 35 13 19 1020.9 1019.9 0.0
04/03:30am 11.7 7.3 10.3 91 0.7 ESE 24 35 13 19 1020.6 1019.6 0.0
04/03:00am 12.2 8.3 10.8 91 0.7 ESE 22 33 12 18 1020.7 1019.7 0.0
04/02:30am 12.6 8.8 11.3 92 0.7 ESE 22 33 12 18 1020.7 1019.7 0.0
04/02:00am 12.9 9.6 11.5 91 0.8 ESE 20 35 11 19 1020.8 1019.8 0.0
04/01:30am 13.1 9.1 11.7 91 0.8 ESE 24 39 13 21 1020.8 1019.8 0.0
04/01:00am 13.3 9.0 11.9 91 0.8 ESE 26 43 14 23 1020.9 1019.9 0.0
04/12:30am 13.2 9.2 11.9 92 0.7 ESE 24 39 13 21 1020.8 1019.8 0.0
04/12:00am 13.1 8.0 12.0 93 0.6 ESE 30 48 16 26 1020.8 1019.8 0.0
 
Date/Time
CDT
Temp
°C
App
Temp
°C
Dew
Point
°C
Rel
Hum
%
Delta-T
°C
Wind Press
QNH
hPa
Press
MSL
hPa
Rain since
9am
mm
Dir  Spd
km/h
Gust
km/h
Spd
kts
Gust
kts
03/11:30pm 13.1 8.0 11.8 92 0.7 ESE 30 43 16 23 1021.0 1020.0 0.0
03/11:00pm 13.1 8.7 11.8 92 0.7 SE 26 39 14 21 1021.1 1020.1 0.0
03/10:30pm 13.1 8.7 11.7 91 0.8 ESE 26 39 14 21 1021.0 1020.0 0.0
03/10:00pm 13.0 9.6 11.4 90 0.9 ESE 20 35 11 19 1021.2 1020.2 0.0
03/09:30pm 12.9 9.5 11.3 90 0.9 ESE 20 35 11 19 1021.2 1020.2 0.0
03/09:00pm 13.2 9.4 11.1 87 1.1 ESE 22 32 12 17 1021.0 1020.0 0.0
03/08:30pm 13.2 8.9 10.7 85 1.3 ESE 24 39 13 21 1020.8 1019.8 0.0
03/08:00pm 13.4 8.9 10.2 81 1.7 ESE 24 39 13 21 1020.4 1019.4 0.0
03/07:30pm 13.8 8.5 9.8 77 2.1 SE 28 48 15 26 1020.2 1019.2 0.0
03/07:01pm 14.4 8.6 9.6 73 2.5 SE 30 48 16 26 1019.9 1018.9 0.0
03/07:00pm 14.5 8.4 9.7 73 2.5 SE 32 48 17 26 1019.9 1018.9 0.0
03/06:30pm 15.0 8.9 9.6 70 2.8 SE 32 54 17 29 1019.7 1018.7 0.0
03/06:04pm 15.5 10.0 9.0 65 3.4 SE 28 52 15 28 1019.8 1018.8 0.0
03/06:00pm 16.1 11.4 9.3 64 3.6 SE 24 39 13 21 1019.8 1018.8 0.0
03/05:30pm 16.4 10.4 8.6 60 4.1 SE 30 48 16 26 1019.8 1018.8 0.0
03/05:26pm 16.0 10.3 8.5 61 3.9 SE 28 48 15 26 1019.7 1018.7 0.0
03/05:00pm 16.8 11.8 8.2 57 4.5 SE 24 43 13 23 1020.1 1019.1 0.0
03/04:30pm 17.1 12.1 8.0 55 4.7 SE 24 35 13 19 1020.3 1019.3 0.0
03/04:00pm 17.8 13.6 8.4 54 4.9 SE 20 35 11 19 1020.6 1019.6 0.0
03/03:30pm 18.0 13.7 7.7 51 5.3 ESE 20 37 11 20 1020.8 1019.8 0.0
03/03:00pm 18.0 13.7 7.7 51 5.3 ESE 20 33 11 18 1020.7 1019.7 0.0
03/02:30pm 18.6 14.7 8.8 53 5.2 SE 19 28 10 15 1020.8 1019.8 0.0
03/02:00pm 19.0 14.9 8.6 51 5.5 ESE 20 35 11 19 1020.9 1019.9 0.0
03/01:30pm 18.7 15.1 8.4 51 5.4 SE 17 26 9 14 1021.1 1020.1 0.0
03/01:00pm 18.8 15.4 9.3 54 5.1 ESE 17 28 9 15 1021.0 1020.0 0.0
03/12:30pm 18.0 14.0 8.3 53 5.1 ESE 19 30 10 16 1021.2 1020.2 0.0
03/12:00pm 17.7 13.5 9.6 59 4.3 E 22 32 12 17 1021.3 1020.3 0.0
03/11:30am 16.2 12.2 8.9 62 3.8 ESE 20 35 11 19 1021.5 1020.5 0.0
03/11:00am 16.0 12.3 9.4 65 3.5 ESE 19 30 10 16 1021.5 1020.5 0.0
03/10:30am 14.7 10.8 9.5 71 2.7 E 20 32 11 17 1021.4 1020.4 0.0
03/10:00am 13.9 10.2 9.5 75 2.3 ESE 19 35 10 19 1021.4 1020.4 0.0
03/09:30am 13.4 9.1 9.3 76 2.1 E 22 35 12 19 1021.0 1020.0 0.0
03/09:00am 13.2 9.3 9.3 77 2.0 E 20 30 11 16 1020.6 1019.6 0.0
03/08:30am 12.9 9.1 9.7 81 1.7 E 20 30 11 16 1020.3 1019.3 0.0
03/08:00am 12.3 8.7 9.9 85 1.3 E 19 30 10 16 1019.9 1018.9 0.0
03/07:30am 12.0 8.2 9.9 87 1.1 E 20 28 11 15 1019.7 1018.7 0.0
03/07:00am 11.9 8.2 9.5 85 1.2 ESE 19 26 10 14 1019.6 1018.6 0.0
03/06:30am 12.0 7.7 9.4 84 1.3 ESE 22 35 12 19 1019.3 1018.3 0.0
03/06:00am 12.0 8.1 9.6 85 1.2 ESE 20 28 11 15 1018.9 1017.9 0.0
03/05:30am 11.9 8.0 9.6 86 1.2 ESE 20 28 11 15 1018.7 1017.7 0.0
03/05:00am 11.8 8.1 9.5 86 1.2 ESE 19 28 10 15 1018.6 1017.6 0.0
03/04:30am 12.2 8.4 9.9 86 1.2 ESE 20 33 11 18 1018.6 1017.6 0.0
03/04:00am 12.2 9.0 10.1 87 1.1 ESE 17 28 9 15 1018.5 1017.5 0.0
03/03:30am 12.1 8.4 10.0 87 1.1 ESE 20 30 11 16 1018.3 1017.3 0.0
03/03:00am 12.0 8.5 10.1 88 1.0 SE 19 28 10 15 1018.4 1017.4 0.0
03/02:30am 12.1 8.6 10.3 89 0.9 SE 19 30 10 16 1018.3 1017.3 0.0
03/02:00am 12.2 8.8 10.6 90 0.8 SE 19 30 10 16 1018.5 1017.5 0.0
03/01:30am 12.3 8.7 10.7 90 0.8 SE 20 32 11 17 1018.7 1017.7 0.0
03/01:00am 12.3 8.8 10.9 91 0.7 SE 20 33 11 18 1018.8 1017.8 0.0
03/12:30am 12.3 8.9 10.7 90 0.8 SE 19 30 10 16 1018.8 1017.8 0.0
03/12:00am 12.4 9.1 10.8 90 0.8 SE 19 28 10 15 1019.1 1018.0 0.0
 
Date/Time
CDT
Temp
°C
App
Temp
°C
Dew
Point
°C
Rel
Hum
%
Delta-T
°C
Wind Press
QNH
hPa
Press
MSL
hPa
Rain since
9am
mm
Dir  Spd
km/h
Gust
km/h
Spd
kts
Gust
kts
02/11:30pm 12.6 9.3 10.8 89 1.0 SE 19 28 10 15 1019.3 1018.3 0.0
02/11:00pm 12.7 9.4 10.9 89 1.0 SE 19 30 10 16 1019.5 1018.5 0.0
02/10:30pm 12.8 9.3 10.9 88 1.0 SE 20 32 11 17 1019.6 1018.6 0.0
02/10:00pm 13.0 9.8 11.1 88 1.0 SE 19 30 10 16 1019.5 1018.5 0.0
02/09:30pm 13.1 9.8 10.8 86 1.2 SE 19 28 10 15 1019.3 1018.3 0.0
02/09:00pm 13.3 10.3 10.8 85 1.3 SE 17 28 9 15 1019.3 1018.3 0.0
02/08:30pm 13.7 10.7 10.5 81 1.7 SE 17 28 9 15 1018.9 1017.9 0.0
02/08:00pm 14.2 10.8 10.4 78 2.0 SE 19 32 10 17 1018.5 1017.5 0.0
02/07:30pm 14.9 11.5 10.7 76 2.3 SE 19 33 10 18 1018.4 1017.4 0.0
02/07:00pm 15.5 12.1 10.7 73 2.6 SSE 19 30 10 16 1018.3 1017.3 0.0
02/06:30pm 16.1 12.8 10.8 71 2.9 SSE 19 32 10 17 1018.1 1017.1 0.0
02/06:00pm 17.0 14.0 10.6 66 3.5 SE 17 28 9 15 1017.8 1016.8 0.0
02/05:30pm 17.7 14.6 10.3 62 4.0 SE 17 28 9 15 1017.8 1016.8 0.0
02/05:00pm 19.3 16.7 10.8 58 4.7 SE 15 26 8 14 1017.7 1016.7 0.0
02/04:30pm 18.9 15.5 10.5 58 4.6 SE 19 32 10 17 1017.9 1016.9 0.0
02/04:00pm 19.5 16.7 11.3 59 4.6 SE 17 30 9 16 1018.2 1017.2 0.0
02/03:30pm 19.5 16.3 11.3 59 4.6 ESE 19 33 10 18 1018.3 1017.3 0.0
02/03:00pm 21.4 18.8 12.0 55 5.4 SE 17 28 9 15 1018.4 1017.4 0.0
02/02:30pm 21.4 18.6 11.4 53 5.6 SE 17 32 9 17 1018.5 1017.5 0.0
02/02:00pm 21.8 19.9 11.8 53 5.7 SE 13 28 7 15 1018.6 1017.6 0.0
02/01:30pm 21.4 19.5 11.7 54 5.5 ENE 13 22 7 12 1018.6 1017.6 0.0
02/01:00pm 19.5 16.6 11.0 58 4.7 ESE 17 26 9 14 1018.6 1017.6 0.0
02/12:30pm 19.3 16.3 12.1 63 4.1 E 19 33 10 18 1018.9 1017.9 0.0
02/12:00pm 17.7 14.6 12.2 70 3.1 ESE 20 35 11 19 1019.3 1018.3 0.0
02/11:30am 17.3 14.1 11.8 70 3.1 ESE 20 33 11 18 1019.5 1018.5 0.0
02/11:00am 18.0 15.3 12.9 72 2.9 ESE 19 32 10 17 1019.5 1018.5 0.0
02/10:30am 16.3 13.3 12.5 78 2.1 ESE 20 33 11 18 1019.7 1018.7 0.0
02/10:00am 15.8 13.3 12.4 80 1.9 ESE 17 24 9 13 1019.8 1018.8 0.0
02/09:30am 15.3 12.7 12.1 81 1.8 ESE 17 24 9 13 1019.7 1018.7 0.0
02/09:00am 16.0 13.1 12.4 79 2.0 ESE 19 28 10 15 1019.3 1018.3 0.0
02/08:30am 14.8 12.6 13.2 90 0.9 SE 17 30 9 16 1018.6 1017.6 0.0
02/08:00am 13.8 10.8 12.7 93 0.6 SE 20 37 11 20 1018.3 1017.3 0.0
02/07:30am 13.3 10.6 12.8 97 0.3 SE 19 26 10 14 1017.9 1016.9 0.0
02/07:00am 13.2 10.9 12.9 98 0.2 ESE 17 26 9 14 1017.4 1016.4 0.0
02/06:30am 13.4 11.1 12.9 97 0.3 SE 17 22 9 12 1017.1 1016.1 0.0
02/06:00am 13.5 11.9 12.9 96 0.3 ESE 13 20 7 11 1016.7 1015.6 0.0
02/05:30am 13.5 11.5 12.7 95 0.4 SE 15 20 8 11 1016.7 1015.6 0.0
02/05:00am 13.5 11.4 12.4 93 0.6 SE 15 20 8 11 1016.5 1015.4 0.0
02/04:30am 13.7 11.6 12.4 92 0.7 SE 15 24 8 13 1016.7 1015.6 0.0
02/04:00am 13.7 11.6 12.4 92 0.7 SE 15 24 8 13 1016.9 1015.9 0.0
02/03:30am 13.8 12.1 12.4 91 0.8 SE 13 19 7 10 1017.1 1016.1 0.0
02/03:00am 13.9 12.6 12.5 91 0.8 ESE 11 15 6 8 1017.4 1016.4 0.0
02/02:30am 13.9 12.6 12.6 92 0.7 SE 11 19 6 10 1017.3 1016.3 0.0
02/02:00am 14.0 12.7 12.6 91 0.8 SE 11 17 6 9 1017.7 1016.7 0.0
02/01:30am 14.0 13.1 12.6 91 0.8 SE 9 15 5 8 1017.7 1016.7 0.0
02/01:00am 13.9 12.2 12.3 90 0.9 SE 13 22 7 12 1017.6 1016.6 0.0
02/12:30am 13.7 11.8 11.8 88 1.0 SSE 13 22 7 12 1017.8 1016.8 0.0
02/12:00am 13.7 11.7 11.4 86 1.2 ESE 13 20 7 11 1017.7 1016.7 0.0
 
Date/Time
CDT
Temp
°C
App
Temp
°C
Dew
Point
°C
Rel
Hum
%
Delta-T
°C
Wind Press
QNH
hPa
Press
MSL
hPa
Rain since
9am
mm
Dir  Spd
km/h
Gust
km/h
Spd
kts
Gust
kts
01/11:30pm 13.8 12.0 10.8 82 1.6 SE 11 19 6 10 1017.7 1016.7 0.0
01/11:00pm 14.0 10.7 11.0 82 1.6 SE 19 26 10 14 1017.6 1016.6 0.0
01/10:30pm 13.9 11.8 11.2 84 1.5 ESE 13 19 7 10 1017.6 1016.6 0.0
01/10:00pm 13.9 11.5 11.4 85 1.4 SE 15 26 8 14 1017.6 1016.6 0.0
01/09:30pm 14.0 11.2 11.5 85 1.4 ESE 17 22 9 12 1017.2 1016.2 0.0
01/09:00pm 14.3 11.5 11.3 82 1.6 ESE 17 24 9 13 1016.9 1015.9 0.0
01/08:30pm 14.4 11.9 11.0 80 1.8 SE 15 24 8 13 1015.4 1014.4 0.0
01/08:00pm 15.0 12.5 11.2 78 2.1 SE 15 22 8 12 1015.5 1014.5 0.0
01/07:30pm 15.8 13.1 11.6 76 2.3 SE 17 24 9 13 1015.4 1014.4 0.0
01/07:00pm 16.6 13.9 11.7 73 2.7 SSE 17 26 9 14 1015.4 1014.4 0.0

Latest Capital City Observations: Canberra | Sydney | Melbourne | Brisbane | Adelaide | Perth | Hobart | Darwin

Other formats

Comma delimited format used in spreadsheet applications
http://www.bom.gov.au/fwo/IDS60901/IDS60901.94683.axf

JavaScript Object Notation format (JSON) in row-major order
http://www.bom.gov.au/fwo/IDS60901/IDS60901.94683.json

Data quality

Most of these data are generated automatically and are frequently updated. Quality checks on data are not normally performed. It is possible for incorrect values to appear. Refer to information at About Latest Weather Observations and please check the disclaimer before using these data.